createdAt,value
2023-04-10T00:00:43.737Z,2.76
2023-04-10T00:01:44.006Z,2.15
2023-04-10T00:02:43.941Z,2.58
2023-04-10T00:03:44.075Z,2.54
2023-04-10T00:04:44.012Z,2.47
2023-04-10T00:05:44.042Z,2.41
2023-04-10T00:06:44.112Z,2.51
2023-04-10T00:07:44.155Z,2.90
2023-04-10T00:08:44.209Z,2.56
2023-04-10T00:09:44.258Z,2.75
2023-04-10T00:10:44.351Z,2.96
2023-04-10T00:11:44.406Z,2.43
2023-04-10T00:12:44.493Z,2.71
2023-04-10T00:13:44.511Z,2.75
2023-04-10T00:14:44.570Z,3.00
2023-04-10T00:15:44.618Z,2.85
2023-04-10T00:16:44.727Z,2.59
2023-04-10T00:17:44.799Z,2.60
2023-04-10T00:18:44.798Z,2.80
2023-04-10T00:19:44.866Z,2.14
2023-04-10T00:20:44.946Z,2.72
2023-04-10T00:21:45.016Z,2.62
2023-04-10T00:22:45.055Z,2.39
2023-04-10T00:23:45.111Z,2.45
2023-04-10T00:24:45.161Z,2.52
2023-04-10T00:25:45.232Z,2.33
2023-04-10T00:26:45.283Z,2.43
2023-04-10T00:27:45.342Z,2.29
2023-04-10T00:28:45.428Z,2.54
2023-04-10T00:29:45.474Z,2.94
2023-04-10T00:30:45.522Z,2.22
2023-04-10T00:31:45.650Z,2.43
2023-04-10T00:32:45.765Z,2.16
2023-04-10T00:33:45.700Z,2.66
2023-04-10T00:34:45.778Z,2.92
2023-04-10T00:35:45.841Z,2.78
2023-04-10T00:36:45.888Z,2.31
2023-04-10T00:37:45.942Z,2.32
2023-04-10T00:38:46.023Z,2.43
2023-04-10T00:39:46.073Z,2.43
2023-04-10T00:40:46.131Z,2.43
2023-04-10T00:41:46.208Z,2.19
2023-04-10T00:42:46.247Z,2.13
2023-04-10T00:43:46.326Z,2.06
2023-04-10T00:44:46.359Z,2.34
2023-04-10T00:45:46.858Z,2.49
2023-04-10T00:46:46.472Z,2.31
2023-04-10T00:47:46.573Z,2.75
2023-04-10T00:48:46.599Z,2.76
2023-04-10T00:49:46.651Z,2.36
2023-04-10T00:50:46.712Z,2.31
2023-04-10T00:51:46.765Z,2.04
2023-04-10T00:52:46.842Z,2.47
2023-04-10T00:53:46.908Z,2.43
2023-04-10T00:54:46.962Z,2.58
2023-04-10T00:55:47.000Z,2.08
2023-04-10T00:56:47.081Z,2.60
2023-04-10T00:57:47.152Z,2.14
2023-04-10T00:58:47.177Z,2.40
2023-04-10T00:59:47.241Z,2.35
2023-04-10T01:00:47.301Z,2.25
2023-04-10T01:01:47.383Z,2.32
2023-04-10T01:02:47.454Z,2.51
2023-04-10T01:03:47.473Z,2.52
2023-04-10T01:04:47.495Z,2.22
2023-04-10T01:05:47.551Z,2.54
2023-04-10T01:06:47.583Z,2.44
2023-04-10T01:07:47.643Z,2.45
2023-04-10T01:08:47.686Z,2.25
2023-04-10T01:09:47.740Z,2.67
2023-04-10T01:10:47.801Z,3.12
2023-04-10T01:11:47.869Z,2.15
2023-04-10T01:12:47.934Z,1.98
2023-04-10T01:13:47.987Z,2.19
2023-04-10T01:14:48.034Z,2.05
2023-04-10T01:15:48.093Z,2.35
2023-04-10T01:16:48.140Z,2.38
2023-04-10T01:17:48.219Z,2.66
2023-04-10T01:18:48.213Z,2.63
2023-04-10T01:19:48.231Z,2.15
2023-04-10T01:20:48.294Z,2.36
2023-04-10T01:21:48.326Z,2.44
2023-04-10T01:22:48.377Z,2.57
2023-04-10T01:23:48.416Z,2.28
2023-04-10T01:24:48.481Z,2.49
2023-04-10T01:25:48.527Z,2.23
2023-04-10T01:26:48.584Z,2.36
2023-04-10T01:27:48.712Z,2.33
2023-04-10T01:28:48.699Z,2.26
2023-04-10T01:29:48.753Z,2.74
2023-04-10T01:30:48.868Z,2.15
2023-04-10T01:31:48.837Z,2.16
2023-04-10T01:32:48.898Z,2.62
2023-04-10T01:33:48.949Z,1.99
2023-04-10T01:34:48.983Z,2.18
2023-04-10T01:35:49.039Z,2.47
2023-04-10T01:36:49.046Z,2.17
2023-04-10T01:37:49.081Z,2.20
2023-04-10T01:38:49.135Z,2.22
2023-04-10T01:39:49.184Z,2.44
2023-04-10T01:40:49.206Z,2.32
2023-04-10T01:41:49.252Z,2.22
2023-04-10T01:42:49.297Z,2.38
2023-04-10T01:43:49.329Z,2.54
2023-04-10T01:44:49.430Z,2.48
2023-04-10T01:45:49.422Z,2.44
2023-04-10T01:46:49.583Z,2.68
2023-04-10T01:47:49.558Z,2.27
2023-04-10T01:48:49.556Z,2.26
2023-04-10T01:49:49.557Z,2.28
2023-04-10T01:50:49.581Z,2.81
2023-04-10T01:51:49.624Z,2.20
2023-04-10T01:52:49.713Z,2.31
2023-04-10T01:53:49.721Z,2.32
2023-04-10T01:54:49.745Z,2.15
2023-04-10T01:55:49.762Z,2.58
2023-04-10T01:56:49.823Z,2.25
2023-04-10T01:57:49.856Z,2.47
2023-04-10T01:58:49.905Z,2.32
2023-04-10T01:59:49.979Z,2.27
2023-04-10T02:00:50.008Z,2.88
2023-04-10T02:01:50.061Z,2.72
2023-04-10T02:02:50.192Z,2.66
2023-04-10T02:03:50.153Z,2.63
2023-04-10T02:04:50.253Z,2.38
2023-04-10T02:05:50.247Z,2.78
2023-04-10T02:06:50.284Z,2.34
2023-04-10T02:07:50.323Z,2.13
2023-04-10T02:08:50.371Z,2.85
2023-04-10T02:09:50.434Z,2.62
2023-04-10T02:10:50.493Z,2.60
2023-04-10T02:11:50.510Z,2.64
2023-04-10T02:12:50.569Z,2.42
2023-04-10T02:13:50.609Z,2.70
2023-04-10T02:14:50.696Z,2.36
2023-04-10T02:15:50.782Z,3.09
2023-04-10T02:16:50.812Z,2.25
2023-04-10T02:17:50.913Z,2.21
2023-04-10T02:18:50.907Z,2.69
2023-04-10T02:19:50.945Z,2.21
2023-04-10T02:20:50.993Z,2.49
2023-04-10T02:21:51.004Z,2.61
2023-04-10T02:22:51.036Z,2.31
2023-04-10T02:23:51.140Z,2.43
2023-04-10T02:24:51.143Z,2.53
2023-04-10T02:25:51.198Z,2.42
2023-04-10T02:26:51.236Z,2.66
2023-04-10T02:27:51.278Z,2.40
2023-04-10T02:28:51.324Z,2.51
2023-04-10T02:29:51.333Z,2.60
2023-04-10T02:30:51.436Z,2.54
2023-04-10T02:31:51.380Z,2.42
2023-04-10T02:32:51.468Z,2.58
2023-04-10T02:33:51.518Z,2.34
2023-04-10T02:34:51.439Z,2.47
2023-04-10T02:35:51.456Z,2.33
2023-04-10T02:36:51.464Z,2.13
2023-04-10T02:37:51.470Z,2.60
2023-04-10T02:38:51.474Z,2.67
2023-04-10T02:39:51.499Z,2.28
2023-04-10T02:40:51.506Z,2.95
2023-04-10T02:41:51.562Z,2.33
2023-04-10T02:42:51.555Z,2.59
2023-04-10T02:43:51.666Z,2.35
2023-04-10T02:44:51.586Z,2.06
2023-04-10T02:45:51.573Z,2.57
2023-04-10T02:46:51.610Z,2.19
2023-04-10T02:47:51.657Z,2.64
2023-04-10T02:48:51.628Z,2.49
2023-04-10T02:49:51.635Z,2.16
2023-04-10T02:50:51.649Z,2.44
2023-04-10T02:51:51.673Z,2.51
2023-04-10T02:52:51.702Z,2.40
2023-04-10T02:53:51.817Z,2.32
2023-04-10T02:54:51.741Z,2.37
2023-04-10T02:55:51.737Z,2.55
2023-04-10T02:56:51.770Z,1.96
2023-04-10T02:57:51.802Z,2.55
2023-04-10T02:58:51.812Z,2.14
2023-04-10T02:59:51.815Z,2.07
2023-04-10T03:00:51.834Z,2.41
2023-04-10T03:01:51.976Z,2.19
2023-04-10T03:02:52.076Z,2.42
2023-04-10T03:03:52.083Z,2.35
2023-04-10T03:04:52.020Z,2.53
2023-04-10T03:05:52.041Z,2.21
2023-04-10T03:06:52.081Z,2.38
2023-04-10T03:07:52.113Z,2.51
2023-04-10T03:08:52.151Z,2.09
2023-04-10T03:09:52.172Z,2.31
2023-04-10T03:10:52.217Z,2.56
2023-04-10T03:11:52.263Z,2.64
2023-04-10T03:12:52.282Z,2.20
2023-04-10T03:13:52.616Z,2.40
2023-04-10T03:14:52.355Z,2.67
2023-04-10T03:15:52.422Z,2.06
2023-04-10T03:16:52.434Z,2.23
2023-04-10T03:17:52.541Z,2.36
2023-04-10T03:18:52.489Z,2.46
2023-04-10T03:19:52.540Z,1.98
2023-04-10T03:20:52.586Z,2.56
2023-04-10T03:21:52.631Z,2.51
2023-04-10T03:22:52.656Z,2.29
2023-04-10T03:23:53.080Z,2.38
2023-04-10T03:24:52.751Z,2.53
2023-04-10T03:25:52.790Z,2.51
2023-04-10T03:26:52.859Z,2.11
2023-04-10T03:27:52.888Z,1.86
2023-04-10T03:28:52.940Z,2.11
2023-04-10T03:29:52.977Z,2.31
2023-04-10T03:30:53.013Z,1.91
2023-04-10T03:31:53.111Z,2.05
2023-04-10T03:32:53.135Z,2.38
2023-04-10T03:33:53.657Z,2.81
2023-04-10T03:34:53.237Z,2.05
2023-04-10T03:35:53.330Z,2.22
2023-04-10T03:36:53.322Z,1.80
2023-04-10T03:37:53.340Z,2.45
2023-04-10T03:38:53.381Z,2.24
2023-04-10T03:39:53.425Z,1.94
2023-04-10T03:40:53.461Z,2.17
2023-04-10T03:41:53.516Z,2.18
2023-04-10T03:42:53.559Z,2.00
2023-04-10T03:43:53.812Z,2.45
2023-04-10T03:44:53.643Z,2.29
2023-04-10T03:45:53.675Z,2.54
2023-04-10T03:46:53.828Z,2.24
2023-04-10T03:47:53.788Z,2.48
2023-04-10T03:48:54.071Z,2.17
2023-04-10T03:49:53.867Z,2.08
2023-04-10T03:50:53.876Z,2.13
2023-04-10T03:51:53.879Z,1.92
2023-04-10T03:52:53.941Z,2.10
2023-04-10T03:53:54.237Z,2.40
2023-04-10T03:54:54.000Z,2.60
2023-04-10T03:55:54.022Z,2.32
2023-04-10T03:56:54.048Z,2.31
2023-04-10T03:57:54.070Z,2.62
2023-04-10T03:58:54.117Z,2.28
2023-04-10T03:59:54.132Z,2.43
2023-04-10T04:00:54.144Z,2.11
2023-04-10T04:01:54.204Z,2.21
2023-04-10T04:02:54.400Z,2.38
2023-04-10T04:03:54.731Z,2.84
2023-04-10T04:04:54.237Z,2.27
2023-04-10T04:05:54.181Z,2.06
2023-04-10T04:06:54.213Z,2.15
2023-04-10T04:07:54.216Z,2.79
2023-04-10T04:08:54.249Z,1.90
2023-04-10T04:09:56.081Z,2.23
2023-04-10T04:10:54.282Z,2.24
2023-04-10T04:11:54.329Z,2.68
2023-04-10T04:12:54.351Z,2.31
2023-04-10T04:13:54.488Z,2.55
2023-04-10T04:14:54.372Z,2.56
2023-04-10T04:15:54.381Z,2.50
2023-04-10T04:16:54.453Z,2.70
2023-04-10T04:17:54.493Z,2.14
2023-04-10T04:18:54.448Z,2.47
2023-04-10T04:19:54.450Z,2.01
2023-04-10T04:20:54.478Z,2.55
2023-04-10T04:21:54.507Z,2.32
2023-04-10T04:22:54.534Z,2.30
2023-04-10T04:23:54.758Z,2.22
2023-04-10T04:24:54.590Z,2.10
2023-04-10T04:25:54.613Z,2.29
2023-04-10T04:26:54.657Z,2.25
2023-04-10T04:27:54.675Z,2.54
2023-04-10T04:28:54.727Z,2.42
2023-04-10T04:29:54.766Z,2.50
2023-04-10T04:30:54.853Z,2.62
2023-04-10T04:31:54.915Z,1.83
2023-04-10T04:32:55.053Z,2.28
2023-04-10T04:33:55.134Z,2.49
2023-04-10T04:34:55.039Z,2.33
2023-04-10T04:35:55.078Z,2.70
2023-04-10T04:36:55.121Z,2.53
2023-04-10T04:37:55.146Z,2.24
2023-04-10T04:38:55.204Z,2.51
2023-04-10T04:39:55.226Z,2.42
2023-04-10T04:40:55.258Z,2.14
2023-04-10T04:41:55.298Z,2.47
2023-04-10T04:42:55.361Z,2.38
2023-04-10T04:43:55.738Z,2.56
2023-04-10T04:44:55.439Z,2.54
2023-04-10T04:45:55.535Z,2.04
2023-04-10T04:46:55.547Z,2.50
2023-04-10T04:47:55.622Z,2.37
2023-04-10T04:48:55.649Z,2.05
2023-04-10T04:49:55.679Z,2.58
2023-04-10T04:50:55.717Z,2.31
2023-04-10T04:51:55.745Z,2.53
2023-04-10T04:52:55.792Z,2.46
2023-04-10T04:53:56.154Z,2.39
2023-04-10T04:54:55.837Z,2.28
2023-04-10T04:55:56.177Z,2.21
2023-04-10T04:56:55.860Z,2.39
2023-04-10T04:57:55.896Z,2.56
2023-04-10T04:58:56.084Z,2.16
2023-04-10T04:59:55.963Z,2.50
2023-04-10T05:00:56.035Z,2.22
2023-04-10T05:01:56.124Z,2.47
2023-04-10T05:02:56.169Z,2.67
2023-04-10T05:03:56.225Z,2.10
2023-04-10T05:04:56.127Z,2.23
2023-04-10T05:05:56.167Z,2.12
2023-04-10T05:06:56.195Z,1.83
2023-04-10T05:07:56.241Z,2.41
2023-04-10T05:08:56.508Z,2.46
2023-04-10T05:09:56.286Z,2.09
2023-04-10T05:10:56.320Z,2.67
2023-04-10T05:11:56.364Z,2.23
2023-04-10T05:12:56.385Z,1.98
2023-04-10T05:13:56.422Z,2.13
2023-04-10T05:14:56.474Z,2.19
2023-04-10T05:15:56.559Z,2.79
2023-04-10T05:16:56.626Z,2.25
2023-04-10T05:17:56.713Z,2.33
2023-04-10T05:18:56.994Z,2.24
2023-04-10T05:19:56.631Z,2.41
2023-04-10T05:20:56.684Z,2.35
2023-04-10T05:21:56.716Z,2.28
2023-04-10T05:22:56.740Z,2.65
2023-04-10T05:23:56.802Z,2.43
2023-04-10T05:24:56.859Z,2.57
2023-04-10T05:25:56.899Z,2.40
2023-04-10T05:26:56.954Z,2.30
2023-04-10T05:27:56.999Z,2.43
2023-04-10T05:28:57.045Z,2.50
2023-04-10T05:29:57.081Z,2.28
2023-04-10T05:30:57.152Z,2.23
2023-04-10T05:31:57.224Z,2.47
2023-04-10T05:32:57.329Z,2.23
2023-04-10T05:33:57.355Z,2.25
2023-04-10T05:34:57.394Z,2.42
2023-04-10T05:35:57.494Z,2.24
2023-04-10T05:36:59.064Z,2.24
2023-04-10T05:37:57.554Z,1.98
2023-04-10T05:38:57.589Z,2.56
2023-04-10T05:39:57.627Z,2.62
2023-04-10T05:40:57.671Z,2.65
2023-04-10T05:41:57.707Z,2.52
2023-04-10T05:42:57.732Z,2.24
2023-04-10T05:43:57.784Z,2.27
2023-04-10T05:44:57.808Z,2.56
2023-04-10T05:45:57.881Z,2.58
2023-04-10T05:46:57.871Z,2.07
2023-04-10T05:47:57.938Z,2.35
2023-04-10T05:48:57.935Z,2.50
2023-04-10T05:49:57.977Z,2.79
2023-04-10T05:50:58.002Z,2.48
2023-04-10T05:51:57.980Z,2.86
2023-04-10T05:52:58.013Z,2.30
2023-04-10T05:53:58.040Z,2.80
2023-04-10T05:54:58.022Z,2.74
2023-04-10T05:55:58.038Z,2.49
2023-04-10T05:56:58.030Z,2.97
2023-04-10T05:57:58.058Z,2.58
2023-04-10T05:58:58.130Z,2.43
2023-04-10T05:59:58.066Z,2.84
2023-04-10T06:00:58.103Z,3.35
2023-04-10T06:01:58.168Z,2.81
2023-04-10T06:02:58.169Z,2.82
2023-04-10T06:03:58.264Z,2.69
2023-04-10T06:04:58.131Z,2.43
2023-04-10T06:05:58.105Z,2.60
2023-04-10T06:06:58.112Z,2.72
2023-04-10T06:07:58.548Z,2.96
2023-04-10T06:08:58.118Z,3.28
2023-04-10T06:09:58.149Z,3.03
2023-04-10T06:10:58.159Z,2.51
2023-04-10T06:11:58.222Z,2.73
2023-04-10T06:12:58.224Z,2.66
2023-04-10T06:13:58.261Z,2.80
2023-04-10T06:14:58.333Z,2.43
2023-04-10T06:15:58.432Z,2.94
2023-04-10T06:16:58.442Z,2.92
2023-04-10T06:17:58.571Z,2.83
2023-04-10T06:18:58.608Z,2.46
2023-04-10T06:19:58.628Z,2.70
2023-04-10T06:20:58.675Z,3.25
2023-04-10T06:21:58.755Z,2.84
2023-04-10T06:22:58.796Z,3.09
2023-04-10T06:23:58.833Z,2.97
2023-04-10T06:24:58.895Z,3.02
2023-04-10T06:25:58.937Z,2.43
2023-04-10T06:26:59.026Z,2.58
2023-04-10T06:27:59.267Z,2.48
2023-04-10T06:28:59.111Z,3.55
2023-04-10T06:29:59.129Z,3.04
2023-04-10T06:30:59.232Z,2.98
2023-04-10T06:31:59.241Z,2.63
2023-04-10T06:32:59.322Z,3.10
2023-04-10T06:33:59.294Z,3.05
2023-04-10T06:34:59.341Z,3.23
2023-04-10T06:35:59.417Z,3.03
2023-04-10T06:36:59.421Z,2.53
2023-04-10T06:37:59.452Z,3.06
2023-04-10T06:38:59.501Z,2.95
2023-04-10T06:39:59.542Z,2.93
2023-04-10T06:40:59.547Z,2.56
2023-04-10T06:41:59.748Z,2.72
2023-04-10T06:42:59.627Z,2.55
2023-04-10T06:44:01.142Z,2.85
2023-04-10T06:44:59.649Z,2.71
2023-04-10T06:45:59.638Z,2.81
2023-04-10T06:46:59.694Z,2.88
2023-04-10T06:47:59.650Z,2.87
2023-04-10T06:48:59.616Z,2.73
2023-04-10T06:49:59.606Z,2.49
2023-04-10T06:50:59.581Z,2.27
2023-04-10T06:51:59.603Z,2.42
2023-04-10T06:52:59.585Z,2.77
2023-04-10T06:53:59.568Z,3.02
2023-04-10T06:54:59.784Z,3.36
2023-04-10T06:56:01.544Z,2.60
2023-04-10T06:56:59.555Z,2.42
2023-04-10T06:57:59.535Z,2.83
2023-04-10T06:58:59.547Z,2.81
2023-04-10T06:59:59.527Z,2.44
2023-04-10T07:00:59.551Z,2.81
2023-04-10T07:01:59.547Z,2.77
2023-04-10T07:02:59.585Z,2.51
2023-04-10T07:03:59.546Z,2.56
2023-04-10T07:04:59.499Z,2.79
2023-04-10T07:05:59.476Z,2.92
2023-04-10T07:06:59.487Z,2.33
2023-04-10T07:07:59.488Z,2.85
2023-04-10T07:08:59.472Z,2.80
2023-04-10T07:09:59.486Z,2.68
2023-04-10T07:10:59.444Z,2.75
2023-04-10T07:11:59.446Z,2.96
2023-04-10T07:12:59.573Z,2.68
2023-04-10T07:13:59.444Z,2.90
2023-04-10T07:14:59.426Z,2.40
2023-04-10T07:15:59.425Z,2.52
2023-04-10T07:16:59.410Z,2.51
2023-04-10T07:17:59.415Z,3.00
2023-04-10T07:18:59.385Z,2.70
2023-04-10T07:19:59.398Z,2.68
2023-04-10T07:20:59.382Z,3.02
2023-04-10T07:21:59.380Z,2.83
2023-04-10T07:22:59.369Z,2.57
2023-04-10T07:23:59.348Z,2.79
2023-04-10T07:24:59.339Z,2.63
2023-04-10T07:25:59.329Z,2.44
2023-04-10T07:26:59.347Z,2.33
2023-04-10T07:27:59.323Z,2.87
2023-04-10T07:28:59.331Z,2.65
2023-04-10T07:29:59.301Z,2.93
2023-04-10T07:30:59.319Z,2.65
2023-04-10T07:31:59.453Z,2.37
2023-04-10T07:32:59.480Z,2.15
2023-04-10T07:33:59.280Z,2.76
2023-04-10T07:34:59.292Z,2.34
2023-04-10T07:35:59.290Z,2.66
2023-04-10T07:36:59.251Z,2.74
2023-04-10T07:37:59.243Z,2.61
2023-04-10T07:38:59.259Z,2.32
2023-04-10T07:39:59.231Z,2.35
2023-04-10T07:40:59.230Z,2.46
2023-04-10T07:41:59.234Z,3.00
2023-04-10T07:42:59.201Z,2.69
2023-04-10T07:43:59.197Z,2.52
2023-04-10T07:44:59.216Z,2.64
2023-04-10T07:45:59.258Z,2.15
2023-04-10T07:46:59.239Z,2.60
2023-04-10T07:47:59.212Z,2.77
2023-04-10T07:48:59.181Z,1.84
2023-04-10T07:49:59.170Z,2.46
2023-04-10T07:50:59.162Z,2.53
2023-04-10T07:51:59.161Z,2.33
2023-04-10T07:52:59.147Z,2.77
2023-04-10T07:53:59.143Z,2.32
2023-04-10T07:54:59.179Z,2.39
2023-04-10T07:55:59.238Z,2.45
2023-04-10T07:56:59.290Z,2.58
2023-04-10T07:57:59.324Z,2.34
2023-04-10T07:58:59.381Z,2.38
2023-04-10T07:59:59.417Z,2.54
2023-04-10T08:00:59.448Z,2.37
2023-04-10T08:01:59.563Z,2.39
2023-04-10T08:02:59.764Z,2.75
2023-04-10T08:04:00.509Z,2.57
2023-04-10T08:04:59.711Z,2.63
2023-04-10T08:05:59.638Z,2.52
2023-04-10T08:06:59.685Z,2.71
2023-04-10T08:07:59.719Z,2.15
2023-04-10T08:08:59.729Z,1.90
2023-04-10T08:09:59.771Z,2.63
2023-04-10T08:10:59.782Z,2.33
2023-04-10T08:11:59.844Z,2.23
2023-04-10T08:12:59.884Z,2.67
2023-04-10T08:13:59.909Z,1.90
2023-04-10T08:14:59.968Z,2.33
2023-04-10T08:16:00.014Z,1.93
2023-04-10T08:17:00.129Z,2.26
2023-04-10T08:18:00.186Z,2.65
2023-04-10T08:19:00.196Z,2.60
2023-04-10T08:20:00.255Z,1.98
2023-04-10T08:21:00.312Z,2.46
2023-04-10T08:22:00.370Z,2.54
2023-04-10T08:23:09.225Z,2.00
2023-04-10T08:24:01.455Z,2.59
2023-04-10T08:25:00.421Z,2.68
2023-04-10T08:26:00.419Z,2.50
2023-04-10T08:27:00.402Z,2.51
2023-04-10T08:28:00.430Z,2.66
2023-04-10T08:29:00.390Z,2.42
2023-04-10T08:30:00.391Z,2.14
2023-04-10T08:31:00.463Z,1.94
2023-04-10T08:32:00.378Z,2.74
2023-04-10T08:33:00.386Z,2.38
2023-04-10T08:34:00.553Z,2.40
2023-04-10T08:35:00.343Z,2.39
2023-04-10T08:36:00.391Z,2.14
2023-04-10T08:37:00.340Z,2.43
2023-04-10T08:38:12.818Z,2.26
2023-04-10T08:39:01.355Z,2.21
2023-04-10T08:40:00.357Z,2.49
2023-04-10T08:41:00.317Z,1.96
2023-04-10T08:42:00.307Z,2.12
2023-04-10T08:43:00.300Z,2.33
2023-04-10T08:44:00.287Z,2.50
2023-04-10T08:45:00.297Z,2.21
2023-04-10T08:46:00.332Z,2.19
2023-04-10T08:47:00.270Z,2.63
2023-04-10T08:48:00.368Z,2.09
2023-04-10T08:49:00.260Z,2.31
2023-04-10T08:50:00.285Z,2.11
2023-04-10T08:51:00.378Z,2.17
2023-04-10T08:52:00.453Z,2.07
2023-04-10T08:53:00.574Z,2.57
2023-04-10T08:54:00.554Z,2.09
2023-04-10T08:55:00.557Z,1.93
2023-04-10T08:56:00.576Z,1.79
2023-04-10T08:57:00.580Z,1.91
2023-04-10T08:58:01.739Z,2.06
2023-04-10T08:59:00.560Z,2.29
2023-04-10T09:00:04.135Z,2.44
2023-04-10T09:01:01.569Z,2.35
2023-04-10T09:02:00.637Z,2.12
2023-04-10T09:03:00.799Z,2.28
2023-04-10T09:04:01.149Z,2.09
2023-04-10T09:05:00.537Z,2.19
2023-04-10T09:06:00.530Z,2.27
2023-04-10T09:07:00.521Z,1.91
2023-04-10T09:08:00.511Z,2.18
2023-04-10T09:10:00.495Z,1.92
2023-04-10T09:11:00.493Z,2.02
2023-04-10T09:12:00.765Z,2.11
2023-04-10T09:13:00.484Z,2.11
2023-04-10T09:14:00.474Z,2.27
2023-04-10T09:15:00.448Z,2.17
2023-04-10T09:16:00.529Z,1.79
2023-04-10T09:17:00.452Z,2.22
2023-04-10T09:18:00.515Z,1.63
2023-04-10T09:19:00.421Z,2.63
2023-04-10T09:20:00.417Z,1.93
2023-04-10T09:21:00.466Z,2.13
2023-04-10T09:22:00.476Z,1.71
2023-04-10T09:23:00.489Z,2.04
2023-04-10T09:24:00.509Z,1.83
2023-04-10T09:25:00.498Z,1.95
2023-04-10T09:26:00.537Z,1.56
2023-04-10T09:27:00.593Z,2.00
2023-04-10T09:28:00.608Z,1.92
2023-04-10T09:29:00.599Z,2.30
2023-04-10T09:30:00.654Z,2.03
2023-04-10T09:31:00.671Z,2.10
2023-04-10T09:32:00.694Z,1.78
2023-04-10T09:33:02.058Z,2.01
2023-04-10T09:34:00.674Z,2.35
2023-04-10T09:35:00.672Z,1.75
2023-04-10T09:36:00.753Z,1.60
2023-04-10T09:37:00.654Z,2.01
2023-04-10T09:38:00.678Z,1.88
2023-04-10T09:39:00.630Z,1.85
2023-04-10T09:40:00.640Z,1.86
2023-04-10T09:41:00.633Z,2.21
2023-04-10T09:42:00.628Z,1.65
2023-04-10T09:43:00.602Z,2.12
2023-04-10T09:44:00.626Z,2.40
2023-04-10T09:45:00.602Z,1.75
2023-04-10T09:46:00.586Z,1.63
2023-04-10T09:47:00.675Z,1.78
2023-04-10T09:48:00.654Z,1.94
2023-04-10T09:49:00.566Z,1.88
2023-04-10T09:50:00.568Z,1.46
2023-04-10T09:51:00.552Z,2.05
2023-04-10T09:52:00.559Z,2.00
2023-04-10T09:53:00.535Z,1.70
2023-04-10T09:54:00.534Z,1.66
2023-04-10T09:55:00.549Z,1.71
2023-04-10T09:56:00.542Z,1.54
2023-04-10T09:57:00.536Z,1.68
2023-04-10T09:58:00.555Z,1.89
2023-04-10T09:59:00.525Z,1.85
2023-04-10T10:00:00.513Z,1.72
2023-04-10T10:01:00.480Z,1.33
2023-04-10T10:02:00.578Z,1.87
2023-04-10T10:03:00.609Z,1.72
2023-04-10T10:04:00.457Z,1.43
2023-04-10T10:05:00.504Z,2.08
2023-04-10T10:06:00.443Z,2.16
2023-04-10T10:07:00.455Z,1.70
2023-04-10T10:08:00.440Z,1.52
2023-04-10T10:09:00.438Z,1.93
2023-04-10T10:10:00.437Z,2.01
2023-04-10T10:11:00.421Z,1.92
2023-04-10T10:12:00.419Z,1.30
2023-04-10T10:13:00.404Z,1.88
2023-04-10T10:14:00.390Z,1.68
2023-04-10T10:15:00.391Z,1.87
2023-04-10T10:16:00.419Z,1.59
2023-04-10T10:17:00.368Z,1.38
2023-04-10T10:18:00.419Z,1.55
2023-04-10T10:19:00.365Z,1.62
2023-04-10T10:20:00.358Z,1.87
2023-04-10T10:21:00.336Z,1.41
2023-04-10T10:22:00.345Z,1.42
2023-04-10T10:23:00.335Z,1.67
2023-04-10T10:24:00.336Z,1.91
2023-04-10T10:25:00.320Z,1.16
2023-04-10T10:26:02.375Z,1.33
2023-04-10T10:27:00.287Z,1.47
2023-04-10T10:28:00.304Z,1.64
2023-04-10T10:29:00.277Z,1.67
2023-04-10T10:30:02.788Z,1.16
2023-04-10T10:31:01.281Z,1.25
2023-04-10T10:32:00.308Z,1.22
2023-04-10T10:33:00.510Z,1.87
2023-04-10T10:34:00.262Z,1.95
2023-04-10T10:35:00.235Z,1.34
2023-04-10T10:36:00.257Z,1.28
2023-04-10T10:37:00.256Z,1.58
2023-04-10T10:38:00.232Z,1.53
2023-04-10T10:39:00.226Z,1.60
2023-04-10T10:40:00.217Z,1.42
2023-04-10T10:41:00.189Z,1.43
2023-04-10T10:42:00.187Z,1.36
2023-04-10T10:43:00.197Z,1.46
2023-04-10T10:44:00.200Z,1.51
2023-04-10T10:45:00.164Z,1.39
2023-04-10T10:46:00.243Z,1.49
2023-04-10T10:47:00.171Z,1.91
2023-04-10T10:48:00.199Z,1.40
2023-04-10T10:49:00.189Z,1.61
2023-04-10T10:50:00.189Z,1.36
2023-04-10T10:51:00.210Z,1.32
2023-04-10T10:52:00.233Z,1.61
2023-04-10T10:53:00.263Z,1.53
2023-04-10T10:54:00.268Z,1.56
2023-04-10T10:55:00.357Z,1.49
2023-04-10T10:56:00.332Z,1.44
2023-04-10T10:57:00.343Z,1.61
2023-04-10T10:58:00.396Z,1.16
2023-04-10T10:59:00.412Z,1.06
2023-04-10T11:00:00.455Z,1.22
2023-04-10T11:01:00.509Z,1.27
2023-04-10T11:02:00.610Z,1.36
2023-04-10T11:03:00.691Z,1.32
2023-04-10T11:04:00.791Z,2.05
2023-04-10T11:05:00.582Z,1.26
2023-04-10T11:06:00.625Z,1.32
2023-04-10T11:07:00.644Z,1.41
2023-04-10T11:08:00.672Z,1.33
2023-04-10T11:09:00.689Z,1.44
2023-04-10T11:10:00.726Z,1.52
2023-04-10T11:11:00.750Z,1.29
2023-04-10T11:12:00.833Z,1.52
2023-04-10T11:13:00.832Z,1.41
2023-04-10T11:14:00.874Z,1.45
2023-04-10T11:15:00.874Z,1.06
2023-04-10T11:16:00.911Z,1.20
2023-04-10T11:17:01.053Z,1.33
2023-04-10T11:18:01.016Z,1.56
2023-04-10T11:19:13.187Z,1.47
2023-04-10T11:20:02.029Z,1.21
2023-04-10T11:21:01.012Z,1.00
2023-04-10T11:22:00.990Z,1.43
2023-04-10T11:23:00.994Z,1.25
2023-04-10T11:24:00.990Z,1.29
2023-04-10T11:25:00.988Z,1.21
2023-04-10T11:26:00.975Z,1.58
2023-04-10T11:27:00.973Z,1.23
2023-04-10T11:28:00.943Z,1.21
2023-04-10T11:29:00.958Z,0.99
2023-04-10T11:30:00.945Z,1.30
2023-04-10T11:31:00.972Z,1.62
2023-04-10T11:32:01.086Z,1.16
2023-04-10T11:33:01.125Z,0.79
2023-04-10T11:34:01.084Z,1.18
2023-04-10T11:35:01.888Z,1.54
2023-04-10T11:36:01.383Z,1.05
2023-04-10T11:37:01.398Z,1.04
2023-04-10T11:38:01.442Z,1.25
2023-04-10T11:39:01.466Z,1.14
2023-04-10T11:40:01.532Z,1.26
2023-04-10T11:41:01.641Z,1.35
2023-04-10T11:42:01.626Z,1.05
2023-04-10T11:43:01.663Z,1.09
2023-04-10T11:44:01.790Z,0.96
2023-04-10T11:45:01.772Z,1.15
2023-04-10T11:46:01.814Z,1.51
2023-04-10T11:47:01.878Z,1.43
2023-04-10T11:48:01.942Z,1.05
2023-04-10T11:49:01.998Z,1.37
2023-04-10T11:50:02.002Z,1.09
2023-04-10T11:51:02.026Z,1.08
2023-04-10T11:52:02.071Z,1.10
2023-04-10T11:53:02.147Z,1.12
2023-04-10T11:54:02.164Z,1.21
2023-04-10T11:55:02.226Z,0.80
2023-04-10T11:56:02.290Z,1.29
2023-04-10T11:57:02.340Z,1.26
2023-04-10T11:58:02.373Z,1.05
2023-04-10T11:59:02.416Z,1.25
2023-04-10T12:00:02.472Z,0.93
2023-04-10T12:01:02.545Z,1.28
2023-04-10T12:02:02.648Z,0.89
2023-04-10T12:03:02.907Z,0.72
2023-04-10T12:04:02.755Z,1.01
2023-04-10T12:05:02.844Z,1.08
2023-04-10T12:06:02.768Z,1.11
2023-04-10T12:07:02.977Z,0.87
2023-04-10T12:08:03.023Z,1.01
2023-04-10T12:09:02.964Z,0.96
2023-04-10T12:10:03.022Z,1.49
2023-04-10T12:11:03.054Z,1.21
2023-04-10T12:12:03.122Z,0.85
2023-04-10T12:13:03.184Z,0.79
2023-04-10T12:14:03.243Z,1.16
2023-04-10T12:15:03.419Z,0.80
2023-04-10T12:16:03.396Z,1.29
2023-04-10T12:17:03.403Z,0.73
2023-04-10T12:18:03.619Z,1.16
2023-04-10T12:19:03.551Z,0.87
2023-04-10T12:20:03.574Z,0.81
2023-04-10T12:21:04.244Z,0.91
2023-04-10T12:22:03.701Z,1.02
2023-04-10T12:23:03.767Z,0.87
2023-04-10T12:24:03.823Z,1.05
2023-04-10T12:25:03.887Z,1.38
2023-04-10T12:26:03.973Z,1.06
2023-04-10T12:27:04.002Z,0.93
2023-04-10T12:28:04.059Z,1.20
2023-04-10T12:29:04.128Z,0.78
2023-04-10T12:30:04.175Z,0.89
2023-04-10T12:31:04.272Z,0.76
2023-04-10T12:32:04.295Z,0.95
2023-04-10T12:33:04.476Z,0.92
2023-04-10T12:34:04.477Z,0.91
2023-04-10T12:35:04.454Z,0.89
2023-04-10T12:36:04.560Z,0.47
2023-04-10T12:37:04.612Z,0.95
2023-04-10T12:38:04.658Z,0.94
2023-04-10T12:39:04.708Z,0.75
2023-04-10T12:40:04.781Z,1.01
2023-04-10T12:41:04.837Z,0.87
2023-04-10T12:42:04.887Z,0.96
2023-04-10T12:43:04.944Z,0.90
2023-04-10T12:44:04.982Z,0.84
2023-04-10T12:45:05.152Z,0.91
2023-04-10T12:46:05.155Z,0.90
2023-04-10T12:47:05.176Z,0.77
2023-04-10T12:48:05.302Z,0.93
2023-04-10T12:49:05.282Z,0.76
2023-04-10T12:50:05.330Z,1.30
2023-04-10T12:51:05.397Z,1.08
2023-04-10T12:52:05.453Z,0.94
2023-04-10T12:53:06.444Z,0.61
2023-04-10T12:54:05.560Z,0.82
2023-04-10T12:55:05.609Z,0.78
2023-04-10T12:56:05.679Z,0.99
2023-04-10T12:57:05.745Z,0.91
2023-04-10T12:58:05.843Z,0.69
2023-04-10T12:59:05.828Z,0.90
2023-04-10T13:00:05.887Z,0.68
2023-04-10T13:01:05.935Z,0.98
2023-04-10T13:02:06.067Z,0.90
2023-04-10T13:03:06.189Z,1.09
2023-04-10T13:04:06.182Z,0.93
2023-04-10T13:05:06.093Z,1.08
2023-04-10T13:06:06.165Z,0.86
2023-04-10T13:07:06.193Z,0.68
2023-04-10T13:08:06.232Z,0.60
2023-04-10T13:09:06.255Z,0.79
2023-04-10T13:10:06.299Z,0.61
2023-04-10T13:11:06.344Z,0.78
2023-04-10T13:12:06.400Z,0.69
2023-04-10T13:13:06.444Z,0.74
2023-04-10T13:14:06.430Z,0.76
2023-04-10T13:15:06.440Z,0.62
2023-04-10T13:16:06.491Z,0.56
2023-04-10T13:17:06.517Z,0.98
2023-04-10T13:18:06.568Z,0.82
2023-04-10T13:19:06.532Z,0.75
2023-04-10T13:20:06.558Z,0.86